Chicago Lawn, Illinois
Current Conditions -  °F | °C
As of 6:53 AM on Friday 28 Nov 2014 (Local Time) from KMDW Reporting Station
Light Snow Light Snow  
Wind Chill: 12°   Ceiling: 8000
Heat Index: 22°   Visibility: 10mi
Dew Point: 13°   Wind: 9mph
Humidity: 68%   Direction: 180°S
Pressure: 30.29"   Gusts: NA
Location:  41.7761°N, 87.7143°W
Report Text: KMDW 281253Z 18008KT 10SM -SN SCT060 OVC080 M06/M11 A3029 RMK AO2 SNB23 SLP275 P0000 T10561106 $
Loading
Personal Weather Stations






























Interactive Weather Map New forecast layout! Learn more

10-Day Weather Forecast

Advertisements
Track Severe Weather on mobile